Home > Products > Valid Products > TAF

000
FTUS45 KGGW 240100 AAA
TAFSDY
TAF AMD
KSDY 240113Z 2401/2424 31005KT P6SM BKN023
     FM240600 30009KT P6SM BKN015
     FM242100 28013KT P6SM BKN025
      AMD LTD TO CLD VIS AND WIND=



000
FTUS45 KGGW 240100 AAA
TAFGDV
TAF AMD
KGDV 240113Z 2401/2424 31005KT P6SM BKN060
     FM240300 31009KT P6SM BKN025
     FM241200 VRB05KT P6SM BKN015
     FM242100 29013KT P6SM BKN030
      AMD LTD TO CLD VIS AND WIND=



000
FTUS45 KGGW 240100 AAA
TAFGDV
TAF AMD
KGDV 240113Z 2401/2424 31005KT P6SM BKN060
     FM240300 31009KT P6SM BKN025
     FM241200 VRB05KT P6SM BKN015
     FM242100 29013KT P6SM BKN030
      AMD LTD TO CLD VIS AND WIND=



000
FTUS45 KGGW 240100 AAA
TAFOLF
TAF AMD
KOLF 240112Z 2401/2424 31008KT P6SM BKN060
     FM240900 VRB04KT 5SM BR BKN005
     FM241400 27009KT P6SM BKN025=



000
FTUS45 KGGW 240100 AAA
TAFOLF
TAF AMD
KOLF 240112Z 2401/2424 31008KT P6SM BKN060
     FM240900 VRB04KT 5SM BR BKN005
     FM241400 27009KT P6SM BKN025=



000
FTUS45 KGGW 232300
TAFOLF
TAF
KOLF 232320Z 2400/2424 31012KT P6SM BKN060
     FM240300 31008KT P6SM BKN040
     FM240900 VRB04KT 5SM BR BKN005
     FM241400 27009KT P6SM BKN025=



000
FTUS45 KGGW 232300
TAFOLF
TAF
KOLF 232320Z 2400/2424 31012KT P6SM BKN060
     FM240300 31008KT P6SM BKN040
     FM240900 VRB04KT 5SM BR BKN005
     FM241400 27009KT P6SM BKN025=



000
FTUS45 KGGW 232300
TAFGDV
TAF
KGDV 232320Z 2400/2424 31016G24KT P6SM BKN060
     FM240300 31009KT P6SM BKN025
     FM241200 VRB05KT P6SM BKN015
     FM242100 29013KT P6SM BKN030
      AMD LTD TO CLD VIS AND WIND=



000
FTUS45 KGGW 232300
TAFGDV
TAF
KGDV 232320Z 2400/2424 31016G24KT P6SM BKN060
     FM240300 31009KT P6SM BKN025
     FM241200 VRB05KT P6SM BKN015
     FM242100 29013KT P6SM BKN030
      AMD LTD TO CLD VIS AND WIND=



000
FTUS45 KGGW 232300
TAFGGW
TAF
KGGW 232320Z 2400/2424 33011KT P6SM BKN060
     FM240300 36010KT P6SM BKN025=



000
FTUS45 KGGW 232300
TAFSDY
TAF
KSDY 232320Z 2400/2424 31015KT P6SM BKN023
     FM240600 30009KT P6SM BKN015
     FM242100 28013KT P6SM BKN025
      AMD LTD TO CLD VIS AND WIND=



000
FTUS45 KGGW 232000 AAA
TAFGGW
TAF AMD
KGGW 232007Z 2320/2418 32020G30KT P6SM BKN025
      TEMPO 2320/2321 1SM -SN
     FM232300 01010KT P6SM SCT020
     FM240900 06005KT P6SM SCT020 BKN180
     FM241500 31006KT P6SM OVC100=



000
FTUS45 KGGW 231800 AAA
TAFGDV
TAF AMD
KGDV 231855Z 2319/2418 28025G35KT P6SM BKN027
     FM240000 32010KT P6SM SCT030
     FM241200 33006KT P6SM FEW030 BKN150
      AMD LTD TO CLD VIS AND WIND=



000
FTUS45 KGGW 231800 AAA
TAFGDV
TAF AMD
KGDV 231855Z 2319/2418 28025G35KT P6SM BKN027
     FM240000 32010KT P6SM SCT030
     FM241200 33006KT P6SM FEW030 BKN150
      AMD LTD TO CLD VIS AND WIND=



000
FTUS45 KGGW 231800 AAA
TAFSDY
TAF AMD
KSDY 231849Z 2319/2418 29020G30KT P6SM SCT025
     FM240000 32015KT P6SM BKN030
     FM240600 32006KT P6SM SCT030
     FM241500 33005KT P6SM FEW020 BKN150
      AMD LTD TO CLD VIS AND WIND=



000
FTUS45 KGGW 231700
TAFGDV
TAF
KGDV 231726Z 2318/2418 29022G30KT 5SM -SN BKN018
      TEMPO 2318/2319 1SM -SN
     FM231900 31020G25KT P6SM OVC025
     FM240000 32010KT P6SM SCT030
     FM241200 33006KT P6SM FEW030 BKN150
      AMD LTD TO CLD VIS AND WIND=



000
FTUS45 KGGW 231700
TAFGDV
TAF
KGDV 231726Z 2318/2418 29022G30KT 5SM -SN BKN018
      TEMPO 2318/2319 1SM -SN
     FM231900 31020G25KT P6SM OVC025
     FM240000 32010KT P6SM SCT030
     FM241200 33006KT P6SM FEW030 BKN150
      AMD LTD TO CLD VIS AND WIND=



000
FTUS45 KGGW 231700
TAFOLF
TAF
KOLF 231726Z 2318/2418 31017G25KT P6SM BKN025
     FM232300 34015KT P6SM SCT040
     FM240900 VRB05KT P6SM SCT020 BKN200=



000
FTUS45 KGGW 231700
TAFOLF
TAF
KOLF 231726Z 2318/2418 31017G25KT P6SM BKN025
     FM232300 34015KT P6SM SCT040
     FM240900 VRB05KT P6SM SCT020 BKN200=



000
FTUS45 KGGW 231700
TAFSDY
TAF
KSDY 231726Z 2318/2418 30025G30KT 5SM -SN BKN017
      TEMPO 2318/2319 1SM -SN
     FM231900 31020G25KT P6SM OVC025
     FM240000 32015KT P6SM BKN030
     FM240600 32006KT P6SM SCT030
     FM241500 33005KT P6SM FEW020 BKN150
      AMD LTD TO CLD VIS AND WIND=



000
FTUS45 KGGW 231700
TAFGGW
TAF
KGGW 231726Z 2318/2418 31025G35KT P6SM BKN025
     FM232300 01010KT P6SM SCT020
     FM240900 06005KT P6SM SCT020 BKN180
     FM241500 31006KT P6SM OVC100=



000
FTUS45 KGGW 231100
TAFGDV
TAF
KGDV 231130Z 2312/2412 29022G35KT P6SM -SHSN OVC030
     FM231800 31023G33KT P6SM VCSH OVC018
     FM240000 32018KT P6SM BKN040
     FM240600 29008KT P6SM SCT027 BKN190
      AMD LTD TO CLD VIS AND WIND=



000
FTUS45 KGGW 231100
TAFGGW
TAF
KGGW 231130Z 2312/2412 31023G35KT 4SM -SN BKN025 OVC035
     FM231800 31020G28KT P6SM BKN027
     FM240000 33012KT P6SM SCT030 BKN230
     FM240300 35008KT P6SM SCT017 BKN230=



000
FTUS45 KGGW 231100
TAFGDV
TAF
KGDV 231130Z 2312/2412 29022G35KT P6SM -SHSN OVC030
     FM231800 31023G33KT P6SM VCSH OVC018
     FM240000 32018KT P6SM BKN040
     FM240600 29008KT P6SM SCT027 BKN190
      AMD LTD TO CLD VIS AND WIND=



000
FTUS45 KGGW 231100
TAFOLF
TAF
KOLF 231130Z 2312/2412 29022G33KT 5SM -SN OVC035
     FM231800 31020G28KT P6SM OVC025
     FM240000 31013KT P6SM SCT040 BKN045
     FM240600 VRB06KT P6SM SCT012 BKN110=



000
FTUS45 KGGW 231100
TAFSDY
TAF
KSDY 231130Z 2312/2412 29025G38KT 5SM -SN BKN025 OVC050
     FM231800 31022G31KT P6SM VCSH OVC023
     FM240000 31018KT P6SM BKN030
     FM240600 29008KT P6SM SCT013 BKN080
      AMD LTD TO CLD VIS AND WIND=



000
FTUS45 KGGW 231100
TAFOLF
TAF
KOLF 231130Z 2312/2412 29022G33KT 5SM -SN OVC035
     FM231800 31020G28KT P6SM OVC025
     FM240000 31013KT P6SM SCT040 BKN045
     FM240600 VRB06KT P6SM SCT012 BKN110=



000
FTUS45 KGGW 231000 AAA
TAFGGW
TAF AMD
KGGW 231050Z 2311/2406 30025G33KT P6SM VCSH SCT016 OVC025
     FM231800 32022G33KT P6SM VCSH BKN040
     FM240000 32012KT P6SM SCT050=



000
FTUS45 KGGW 231000 AAA
TAFOLF
TAF AMD
KOLF 231050Z 2311/2406 29021G32KT P6SM VCSH SCT017 OVC025
     FM231800 32021G32KT P6SM VCSH OVC025
     FM240000 31014KT P6SM BKN045=



000
FTUS45 KGGW 231000 AAA
TAFOLF
TAF AMD
KOLF 231050Z 2311/2406 29021G32KT P6SM VCSH SCT017 OVC025
     FM231800 32021G32KT P6SM VCSH OVC025
     FM240000 31014KT P6SM BKN045=



000
FTUS45 KGGW 230500
TAFOLF
TAF
KOLF 230520Z 2306/2406 27024G36KT P6SM VCSH SCT017 BKN040
     FM231800 32021G32KT P6SM VCSH OVC025
     FM240000 31014KT P6SM BKN045=



000
FTUS45 KGGW 230500
TAFGGW
TAF
KGGW 230520Z 2306/2406 28025G38KT P6SM VCSH SCT016 BKN045
     FM231800 32022G33KT P6SM VCSH BKN040
     FM240000 32012KT P6SM SCT050=



000
FTUS45 KGGW 230500
TAFSDY
TAF
KSDY 230520Z 2306/2406 27024G36KT P6SM VCSH SCT011 BKN045
     FM231800 32023G34KT P6SM VCSH OVC023
     FM240000 32017G25KT P6SM BKN030
      AMD LTD TO CLD VIS AND WIND=



000
FTUS45 KGGW 230500
TAFOLF
TAF
KOLF 230520Z 2306/2406 27024G36KT P6SM VCSH SCT017 BKN040
     FM231800 32021G32KT P6SM VCSH OVC025
     FM240000 31014KT P6SM BKN045=



000
FTUS45 KGGW 230500
TAFGDV
TAF
KGDV 230520Z 2306/2406 27023G34KT P6SM SCT035 BKN045
     FM231200 29025G37KT P6SM VCSH OVC030
     FM240000 32018G26KT P6SM BKN040
      AMD LTD TO CLD VIS AND WIND=



000
FTUS45 KGGW 230500
TAFGDV
TAF
KGDV 230520Z 2306/2406 27023G34KT P6SM SCT035 BKN045
     FM231200 29025G37KT P6SM VCSH OVC030
     FM240000 32018G26KT P6SM BKN040
      AMD LTD TO CLD VIS AND WIND=



000
FTUS45 KGGW 222300
TAFGDV
TAF
KGDV 222322Z 2300/2324 21010KT P6SM SCT080
     FM230600 27019KT P6SM OVC060
     FM230900 30023KT P6SM VCSH OVC035
     FM231200 31026G36KT 4SM -SN BLSN OVC015
      AMD LTD TO CLD VIS AND WIND=



000
FTUS45 KGGW 222300
TAFGGW
TAF
KGGW 222322Z 2300/2324 27016G26KT P6SM FEW070
     FM230400 28017G27KT 6SM -SHSN BLSN SCT015 BKN035
     FM230700 30018KT P6SM VCSH OVC025
     FM231200 31019G29KT 4SM -SN BLSN OVC020
     FM231700 32018G28KT P6SM OVC050=



000
FTUS45 KGGW 222300
TAFOLF
TAF
KOLF 222322Z 2300/2324 26009KT P6SM SCT070
     FM230500 27013KT 6SM -SHSN BLSN BKN040
     FM230800 29018KT P6SM VCSH OVC025
     FM231200 31020G30KT 4SM -SN BLSN OVC025
     FM231700 32019G29KT P6SM OVC030=



000
FTUS45 KGGW 222300
TAFOLF
TAF
KOLF 222322Z 2300/2324 26009KT P6SM SCT070
     FM230500 27013KT 6SM -SHSN BLSN BKN040
     FM230800 29018KT P6SM VCSH OVC025
     FM231200 31020G30KT 4SM -SN BLSN OVC025
     FM231700 32019G29KT P6SM OVC030=



000
FTUS45 KGGW 222300
TAFSDY
TAF
KSDY 222322Z 2300/2324 24007KT P6SM FEW060
     FM230700 26020KT P6SM VCSH BKN025
     FM231200 31025G35KT 4SM -SN BLSN OVC015
      AMD LTD TO CLD VIS AND WIND=



000
FTUS45 KGGW 222300
TAFGDV
TAF
KGDV 222322Z 2300/2324 21010KT P6SM SCT080
     FM230600 27019KT P6SM OVC060
     FM230900 30023KT P6SM VCSH OVC035
     FM231200 31026G36KT 4SM -SN BLSN OVC015
      AMD LTD TO CLD VIS AND WIND=



000
FTUS45 KGGW 222200 AAB
TAFGGW
TAF AMD
KGGW 222232Z 2223/2318 26012G22KT P6SM FEW070
     FM230100 25018G28KT P6SM VCSH BKN030
     FM230300 28017KT P6SM -RASN OVC015
     FM230600 30017KT 4SM -SN OVC007=



000
FTUS45 KGGW 221800 AAA
TAFGGW
TAF AMD
KGGW 221809Z 2218/2318 12011KT P6SM BKN100
     FM222000 21015G25KT P6SM BKN050
     FM230000 25018G28KT P6SM VCSH BKN030
     FM230300 28017KT P6SM -RASN OVC015
     FM230600 30017KT 4SM -SN OVC007=



000
FTUS45 KGGW 221700
TAFGDV
TAF
KGDV 221723Z 2218/2318 20012KT P6SM OVC080
      TEMPO 2218/2219 6SM -SHRA OVC050
     FM221900 22012KT 6SM -SHRA OVC050
     FM222100 20010KT P6SM SCT025 OVC040
     FM230300 26018KT P6SM SCT060
     FM230900 30023KT P6SM VCSH OVC035
     FM231200 31027G37KT 4SM -SN BLSN OVC015
      AMD LTD TO CLD VIS AND WIND=



000
FTUS45 KGGW 221700
TAFSDY
TAF
KSDY 221723Z 2218/2318 VRB06KT P6SM OVC090
      TEMPO 2218/2219 6SM -SHRA OVC050
     FM221900 21009KT 6SM -SHRA OVC050
     FM222100 24011KT P6SM VCSH OVC060
     FM230600 26019KT P6SM VCSH BKN025
     FM231200 31021G31KT 4SM -SN BLSN OVC015
      AMD LTD TO CLD VIS AND WIND=



000
FTUS45 KGGW 221700
TAFGGW
TAF
KGGW 221723Z 2218/2318 12011KT P6SM BKN100 OVC120
     FM222000 21015G25KT P6SM BKN050
     FM230000 25018G28KT P6SM VCSH BKN030
     FM230300 28017KT P6SM -RASN OVC015
     FM230600 30017KT 4SM -SN OVC007=



000
FTUS45 KGGW 221700
TAFOLF
TAF
KOLF 221723Z 2218/2318 VRB05KT P6SM OVC090
     FM222100 23009KT P6SM VCSH SCT025 BKN060
     FM230300 28015KT P6SM BKN040 OVC100
     FM230900 29018KT P6SM VCSH OVC025
     FM231200 30020G30KT 4SM -SN OVC025=



000
FTUS45 KGGW 221700
TAFGDV
TAF
KGDV 221723Z 2218/2318 20012KT P6SM OVC080
      TEMPO 2218/2219 6SM -SHRA OVC050
     FM221900 22012KT 6SM -SHRA OVC050
     FM222100 20010KT P6SM SCT025 OVC040
     FM230300 26018KT P6SM SCT060
     FM230900 30023KT P6SM VCSH OVC035
     FM231200 31027G37KT 4SM -SN BLSN OVC015
      AMD LTD TO CLD VIS AND WIND=



000
FTUS45 KGGW 221100
TAFGDV
TAF
KGDV 221127Z 2212/2312 VRB06KT P6SM SCT100
     FM221800 20008KT P6SM SCT100
     FM230300 26015G22KT P6SM VCSH BKN060
      AMD LTD TO CLD VIS AND WIND=



000
FTUS45 KGGW 221100
TAFOLF
TAF
KOLF 221127Z 2212/2312 VRB05KT P6SM BKN080
     FM221700 22010KT P6SM SCT100
     FM230200 27015G22KT P6SM VCSH BKN040=



000
FTUS45 KGGW 221100
TAFGDV
TAF
KGDV 221127Z 2212/2312 VRB06KT P6SM SCT100
     FM221800 20008KT P6SM SCT100
     FM230300 26015G22KT P6SM VCSH BKN060
      AMD LTD TO CLD VIS AND WIND=



000
FTUS45 KGGW 221100
TAFOLF
TAF
KOLF 221127Z 2212/2312 VRB05KT P6SM BKN080
     FM221700 22010KT P6SM SCT100
     FM230200 27015G22KT P6SM VCSH BKN040=



000
FTUS45 KGGW 221100
TAFGGW
TAF
KGGW 221127Z 2212/2312 12010KT P6SM BKN045
     FM221700 21014KT P6SM SCT100
     FM230200 26015G22KT P6SM VCSH BKN030=



000
FTUS45 KGGW 221100
TAFSDY
TAF
KSDY 221127Z 2212/2312 VRB06KT P6SM SCT090
     FM221800 20008KT P6SM SCT100
     FM230200 26015G24KT P6SM VCSH BKN060
      AMD LTD TO CLD VIS AND WIND=



000
FTUS45 KGGW 220500
TAFSDY
TAF
KSDY 220520Z 2206/2306 24007KT P6SM SCT140
     FM221200 VRB06KT P6SM VCSH BKN090
     FM221800 20008KT P6SM VCSH BKN080
     FM230300 26012KT P6SM VCSH BKN090
      AMD LTD TO CLD VIS AND WIND=



000
FTUS45 KGGW 220500
TAFGGW
TAF
KGGW 220520Z 2206/2306 VRB03KT P6SM SCT080
     FM221200 12007KT P6SM VCSH BKN045
     FM222100 20008KT P6SM VCSH BKN070
     FM230000 25012KT P6SM VCSH BKN030=



000
FTUS45 KGGW 220500
TAFOLF
TAF
KOLF 220520Z 2206/2306 VRB05KT P6SM SCT080
     FM221200 VRB03KT P6SM VCSH BKN080
     FM222100 22007KT P6SM VCSH BKN045
     FM230000 25009KT P6SM VCSH BKN080=



000
FTUS45 KGGW 220500
TAFGDV
TAF
KGDV 220520Z 2206/2306 22007KT P6SM SCT090
     FM221200 VRB06KT P6SM VCSH BKN100
     FM221800 20008KT P6SM VCSH BKN070
     FM230300 26013KT P6SM VCSH BKN120
      AMD LTD TO CLD VIS AND WIND=



000
FTUS45 KGGW 220500
TAFGDV
TAF
KGDV 220520Z 2206/2306 22007KT P6SM SCT090
     FM221200 VRB06KT P6SM VCSH BKN100
     FM221800 20008KT P6SM VCSH BKN070
     FM230300 26013KT P6SM VCSH BKN120
      AMD LTD TO CLD VIS AND WIND=



000
FTUS45 KGGW 220500
TAFOLF
TAF
KOLF 220520Z 2206/2306 VRB05KT P6SM SCT080
     FM221200 VRB03KT P6SM VCSH BKN080
     FM222100 22007KT P6SM VCSH BKN045
     FM230000 25009KT P6SM VCSH BKN080=



000
FTUS45 KGGW 212300
TAFGDV
TAF
KGDV 212322Z 2200/2224 25009KT P6SM FEW005 SCT200
     FM221300 19007KT P6SM VCSH SCT060 BKN090
     FM222100 26012KT P6SM VCSH SCT040 BKN080
      AMD LTD TO CLD VIS AND WIND=



000
FTUS45 KGGW 212300
TAFOLF
TAF
KOLF 212322Z 2200/2224 26007KT P6SM SCT005 BKN250
     FM221300 VRB04KT P6SM VCSH SCT050 BKN090
     FM222100 27008KT P6SM SCT150 BKN200=



000
FTUS45 KGGW 212300
TAFOLF
TAF
KOLF 212322Z 2200/2224 26007KT P6SM SCT005 BKN250
     FM221300 VRB04KT P6SM VCSH SCT050 BKN090
     FM222100 27008KT P6SM SCT150 BKN200=



000
FTUS45 KGGW 212300
TAFSDY
TAF
KSDY 212322Z 2200/2224 26008KT P6SM FEW005 SCT200
     FM221300 19006KT P6SM VCSH SCT040 BKN060
     FM222000 24009KT P6SM BKN150
      AMD LTD TO CLD VIS AND WIND=



000
FTUS45 KGGW 212300
TAFGDV
TAF
KGDV 212322Z 2200/2224 25009KT P6SM FEW005 SCT200
     FM221300 19007KT P6SM VCSH SCT060 BKN090
     FM222100 26012KT P6SM VCSH SCT040 BKN080
      AMD LTD TO CLD VIS AND WIND=



000
FTUS45 KGGW 212300
TAFGGW
TAF
KGGW 212322Z 2200/2224 25008KT P6SM FEW005 SCT250
     FM221200 14008KT P6SM VCSH SCT060 BKN090
     FM222100 26013G19KT P6SM SCT120 BKN200=



000
FTUS45 KGGW 211700
TAFGGW
TAF
KGGW 211726Z 2118/2218 26013G19KT P6SM FEW250
     FM212200 26009KT P6SM FEW005 SCT150
     FM220400 VRB06KT P6SM SCT150 BKN250
     FM221500 12010KT P6SM VCSH SCT060 BKN090=



000
FTUS45 KGGW 211700
TAFGDV
TAF
KGDV 211726Z 2118/2218 23014KT P6SM SCT250
     FM212200 26009KT P6SM FEW005
     FM221200 18007KT P6SM VCSH SCT060 BKN120
      AMD LTD TO CLD VIS AND WIND=



000
FTUS45 KGGW 211700
TAFGDV
TAF
KGDV 211726Z 2118/2218 23014KT P6SM SCT250
     FM212200 26009KT P6SM FEW005
     FM221200 18007KT P6SM VCSH SCT060 BKN120
      AMD LTD TO CLD VIS AND WIND=



000
FTUS45 KGGW 211700
TAFOLF
TAF
KOLF 211726Z 2118/2218 26010KT P6SM SCT250
     FM212200 26008KT P6SM FEW005 SCT060
     FM220500 VRB04KT P6SM SCT250
     FM221500 VRB05KT P6SM VCSH SCT060 BKN110=



000
FTUS45 KGGW 211700
TAFSDY
TAF
KSDY 211726Z 2118/2218 24016G22KT P6SM SKC
     FM212300 26008KT P6SM FEW005 SCT250
     FM221200 19007KT P6SM SCT070 BKN120
      AMD LTD TO CLD VIS AND WIND=



000
FTUS45 KGGW 211700
TAFOLF
TAF
KOLF 211726Z 2118/2218 26010KT P6SM SCT250
     FM212200 26008KT P6SM FEW005 SCT060
     FM220500 VRB04KT P6SM SCT250
     FM221500 VRB05KT P6SM VCSH SCT060 BKN110=



000
FTUS45 KGGW 211100
TAFGDV
TAF
KGDV 211132Z 2112/2212 17007KT P6SM VCFG SCT001 SCT150
      WS010/28033KT
     FM211600 25015KT P6SM SCT200
     FM220100 23009KT P6SM SCT005
      AMD LTD TO CLD VIS AND WIND=



000
FTUS45 KGGW 211100
TAFOLF
TAF
KOLF 211132Z 2112/2212 27005KT P6SM VCFG SCT001 SCT150
      WS010/28032KT
     FM211700 27011KT P6SM SCT200
     FM220100 27006KT P6SM SCT007=



000
FTUS45 KGGW 211100
TAFGGW
TAF
KGGW 211132Z 2112/2212 23005KT P6SM VCFG FEW001 SCT150
      WS010/29032KT
     FM211700 28012KT P6SM SCT200
     FM220100 28005KT P6SM SCT005=



000
FTUS45 KGGW 211100
TAFOLF
TAF
KOLF 211132Z 2112/2212 27005KT P6SM VCFG SCT001 SCT150
      WS010/28032KT
     FM211700 27011KT P6SM SCT200
     FM220100 27006KT P6SM SCT007=



000
FTUS45 KGGW 211100
TAFSDY
TAF
KSDY 211132Z 2112/2212 18007KT P6SM VCFG SCT001 SCT150
      WS010/27033KT
     FM211700 25014KT P6SM SCT200
     FM220100 24007KT P6SM SCT006
      AMD LTD TO CLD VIS AND WIND=



000
FTUS45 KGGW 211100
TAFGDV
TAF
KGDV 211132Z 2112/2212 17007KT P6SM VCFG SCT001 SCT150
      WS010/28033KT
     FM211600 25015KT P6SM SCT200
     FM220100 23009KT P6SM SCT005
      AMD LTD TO CLD VIS AND WIND=



000
FTUS45 KGGW 210500
TAFOLF
TAF
KOLF 210520Z 2106/2206 00000KT 6SM BR VCFG BKN150 WS010/28025KT
     FM210900 VRB03KT 3SM BR VCFG SCT001 BKN150 WS010/28032KT
     FM211500 25006KT P6SM SCT150 WS010/28035KT
     FM211700 27011KT P6SM SCT200
     FM220000 27006KT P6SM SCT200=



000
FTUS45 KGGW 210500
TAFGDV
TAF
KGDV 210520Z 2106/2206 20007KT 6SM BR VCFG SCT001 BKN150
      WS010/28033KT
     FM211700 25015KT P6SM SCT200
     FM220200 26009KT P6SM SCT200
      AMD LTD TO CLD VIS AND WIND=



000
FTUS45 KGGW 210500
TAFGDV
TAF
KGDV 210520Z 2106/2206 20007KT 6SM BR VCFG SCT001 BKN150
      WS010/28033KT
     FM211700 25015KT P6SM SCT200
     FM220200 26009KT P6SM SCT200
      AMD LTD TO CLD VIS AND WIND=



000
FTUS45 KGGW 210500
TAFGGW
TAF
KGGW 210520Z 2106/2206 23005KT 6SM BR VCFG SCT001 BKN150
      WS010/29032KT
     FM211700 28012KT P6SM SCT200
     FM220000 28007KT P6SM SCT200=



000
FTUS45 KGGW 210500
TAFSDY
TAF
KSDY 210520Z 2106/2206 20007KT 6SM BR VCFG BKN150
     FM211200 21008KT 6SM BR VCFG SCT001 SCT150 WS010/27033KT
     FM211700 25014KT P6SM SCT200
     FM220100 26007KT P6SM SCT200
      AMD LTD TO CLD VIS AND WIND=



000
FTUS45 KGGW 210500
TAFOLF
TAF
KOLF 210520Z 2106/2206 00000KT 6SM BR VCFG BKN150 WS010/28025KT
     FM210900 VRB03KT 3SM BR VCFG SCT001 BKN150 WS010/28032KT
     FM211500 25006KT P6SM SCT150 WS010/28035KT
     FM211700 27011KT P6SM SCT200
     FM220000 27006KT P6SM SCT200=



    US Dept of Commerce
    National Oceanic and Atmospheric Administration
    National Weather Service
    1325 East West Highway
    Silver Spring, MD 20910
    Page Author: NWS Internet Services Team
Disclaimer
Information Quality
Credits
Glossary
Privacy Policy
Freedom of Information Act (FOIA)
About Us
Career Opportunities